createdAt,value
2018-12-20T00:00:16.387Z,82.34
2018-12-20T00:02:43.835Z,82.32
2018-12-20T00:05:11.285Z,82.21
2018-12-20T00:07:38.660Z,82.05
2018-12-20T00:10:06.132Z,81.70
2018-12-20T00:12:33.536Z,81.37
2018-12-20T00:15:01.034Z,81.19
2018-12-20T00:17:33.979Z,81.05
2018-12-20T00:20:01.301Z,81.06
2018-12-20T00:22:28.845Z,80.89
2018-12-20T00:24:56.095Z,80.68
2018-12-20T00:27:23.599Z,80.43
2018-12-20T00:29:51.015Z,80.34
2018-12-20T00:32:18.402Z,80.14
2018-12-20T00:34:45.847Z,80.18
2018-12-20T00:37:13.303Z,80.72
2018-12-20T00:39:40.630Z,80.93
2018-12-20T00:42:08.071Z,81.01
2018-12-20T00:44:37.482Z,81.24
2018-12-20T00:47:02.945Z,81.42
2018-12-20T00:49:30.481Z,81.79
2018-12-20T00:51:57.760Z,82.04
2018-12-20T00:54:25.198Z,82.14
2018-12-20T00:56:52.792Z,82.84
2018-12-20T00:59:20.049Z,83.15
2018-12-20T01:01:47.461Z,83.54
2018-12-20T01:04:14.897Z,84.16
2018-12-20T01:06:42.443Z,84.64
2018-12-20T01:09:09.815Z,84.16
2018-12-20T01:11:37.166Z,83.92
2018-12-20T01:14:04.594Z,83.99
2018-12-20T01:16:32.165Z,84.20
2018-12-20T01:18:59.538Z,84.18
2018-12-20T01:21:27.303Z,83.92
2018-12-20T01:23:54.785Z,83.74
2018-12-20T01:26:22.109Z,83.68
2018-12-20T01:28:49.583Z,83.56
2018-12-20T01:31:17.058Z,83.35
2018-12-20T01:33:44.312Z,83.26
2018-12-20T01:36:11.847Z,82.78
2018-12-20T01:38:39.296Z,82.48
2018-12-20T01:41:06.637Z,82.04
2018-12-20T01:43:34.200Z,81.90
2018-12-20T01:46:01.728Z,81.87
2018-12-20T01:48:29.060Z,82.11
2018-12-20T01:50:56.460Z,82.33
2018-12-20T01:53:24.140Z,82.40
2018-12-20T01:55:51.523Z,82.42
2018-12-20T01:58:18.975Z,82.26
2018-12-20T02:00:46.507Z,82.31
2018-12-20T02:03:14.109Z,82.58
2018-12-20T02:05:41.571Z,82.63
2018-12-20T02:08:09.072Z,82.57
2018-12-20T02:10:36.496Z,82.43
2018-12-20T02:13:03.962Z,82.58
2018-12-20T02:15:31.469Z,82.60
2018-12-20T02:17:59.043Z,82.31
2018-12-20T02:20:26.708Z,82.22
2018-12-20T02:22:54.022Z,81.97
2018-12-20T02:25:21.601Z,81.84
2018-12-20T02:27:48.918Z,81.60
2018-12-20T02:30:16.235Z,81.43
2018-12-20T02:32:43.775Z,81.73
2018-12-20T02:35:11.130Z,81.68
2018-12-20T02:37:38.522Z,81.60
2018-12-20T02:40:06.066Z,81.31
2018-12-20T02:42:33.404Z,81.27
2018-12-20T02:45:00.799Z,81.27
2018-12-20T02:47:28.740Z,81.36
2018-12-20T02:49:56.155Z,81.24
2018-12-20T02:52:23.672Z,81.08
2018-12-20T02:54:51.278Z,81.08
2018-12-20T02:57:18.658Z,81.00
2018-12-20T02:59:45.843Z,81.31
2018-12-20T03:02:13.270Z,81.45
2018-12-20T03:04:40.702Z,81.45
2018-12-20T03:07:08.129Z,81.47
2018-12-20T03:09:35.653Z,81.25
2018-12-20T03:12:02.908Z,81.36
2018-12-20T03:14:30.339Z,81.69
2018-12-20T03:16:57.773Z,81.67
2018-12-20T03:19:25.176Z,81.04
2018-12-20T03:21:52.623Z,80.42
2018-12-20T03:24:20.232Z,80.07
2018-12-20T03:26:47.509Z,80.07
2018-12-20T03:29:14.884Z,79.43
2018-12-20T03:31:42.379Z,79.26
2018-12-20T03:34:09.789Z,79.17
2018-12-20T03:36:37.334Z,79.33
2018-12-20T03:39:04.761Z,79.44
2018-12-20T03:41:32.265Z,79.67
2018-12-20T03:43:59.615Z,79.80
2018-12-20T03:46:27.029Z,79.85
2018-12-20T03:48:54.528Z,79.88
2018-12-20T03:51:21.904Z,79.80
2018-12-20T03:53:49.630Z,79.79
2018-12-20T03:56:16.825Z,80.05
2018-12-20T03:58:44.377Z,80.16
2018-12-20T04:01:11.596Z,80.23
2018-12-20T04:03:39.052Z,80.24
2018-12-20T04:06:06.764Z,80.28
2018-12-20T04:08:33.999Z,80.60
2018-12-20T04:11:01.530Z,80.62
2018-12-20T04:13:28.855Z,80.49
2018-12-20T04:15:56.437Z,80.31
2018-12-20T04:18:23.886Z,79.96
2018-12-20T04:20:51.255Z,79.67
2018-12-20T04:23:18.782Z,79.45
2018-12-20T04:25:45.923Z,79.01
2018-12-20T04:28:13.332Z,79.02
2018-12-20T04:30:40.755Z,79.05
2018-12-20T04:33:08.183Z,79.23
2018-12-20T04:35:35.576Z,79.34
2018-12-20T04:38:02.995Z,79.20
2018-12-20T04:40:30.575Z,79.17
2018-12-20T04:42:57.842Z,79.54
2018-12-20T04:45:25.282Z,79.44
2018-12-20T04:47:52.967Z,79.52
2018-12-20T04:50:20.187Z,79.58
2018-12-20T04:52:47.623Z,79.58
2018-12-20T04:55:15.303Z,79.43
2018-12-20T04:57:42.486Z,79.45
2018-12-20T05:00:10.040Z,79.42
2018-12-20T05:02:37.338Z,79.24
2018-12-20T05:05:04.881Z,79.27
2018-12-20T05:07:32.294Z,79.54
2018-12-20T05:10:00.403Z,79.64
2018-12-20T05:12:27.854Z,79.59
2018-12-20T05:14:55.414Z,79.36
2018-12-20T05:17:22.654Z,79.00
2018-12-20T05:19:50.139Z,78.78
2018-12-20T05:22:17.460Z,78.86
2018-12-20T05:24:44.981Z,78.91
2018-12-20T05:27:12.449Z,78.83
2018-12-20T05:29:39.902Z,78.76
2018-12-20T05:32:07.375Z,79.07
2018-12-20T05:34:34.756Z,79.13
2018-12-20T05:37:02.408Z,79.35
2018-12-20T05:39:29.619Z,79.40
2018-12-20T05:41:57.217Z,79.30
2018-12-20T05:44:24.709Z,79.07
2018-12-20T05:46:51.858Z,78.84
2018-12-20T05:49:19.363Z,79.04
2018-12-20T05:51:46.787Z,79.25
2018-12-20T05:54:14.214Z,79.38
2018-12-20T05:56:41.672Z,79.51
2018-12-20T05:59:09.083Z,79.72
2018-12-20T06:01:36.622Z,80.06
2018-12-20T06:04:04.121Z,80.21
2018-12-20T06:06:31.487Z,80.22
2018-12-20T06:08:59.078Z,79.95
2018-12-20T06:11:26.326Z,80.14
2018-12-20T06:13:55.169Z,80.31
2018-12-20T06:16:21.351Z,80.10
2018-12-20T06:18:48.604Z,80.12
2018-12-20T06:21:16.142Z,80.10
2018-12-20T06:23:43.519Z,80.25
2018-12-20T06:26:10.975Z,80.33
2018-12-20T06:28:38.384Z,80.53
2018-12-20T06:31:05.894Z,80.48
2018-12-20T06:33:33.321Z,80.46
2018-12-20T06:36:00.818Z,80.54
2018-12-20T06:38:28.213Z,80.69
2018-12-20T06:40:55.679Z,80.72
2018-12-20T06:43:23.095Z,81.11
2018-12-20T06:45:50.587Z,81.14
2018-12-20T06:48:17.985Z,81.46
2018-12-20T06:50:45.560Z,81.95
2018-12-20T06:53:13.071Z,82.09
2018-12-20T06:55:40.514Z,82.24
2018-12-20T06:58:07.931Z,82.27
2018-12-20T07:00:35.368Z,82.01
2018-12-20T07:03:03.348Z,81.68
2018-12-20T07:05:30.759Z,81.72
2018-12-20T07:07:58.170Z,81.59
2018-12-20T07:10:25.567Z,81.52
2018-12-20T07:12:52.983Z,81.76
2018-12-20T07:15:20.375Z,82.18
2018-12-20T07:17:47.774Z,82.51
2018-12-20T07:20:15.208Z,82.58
2018-12-20T07:22:42.646Z,82.50
2018-12-20T07:25:10.067Z,82.56
2018-12-20T07:27:37.480Z,82.36
2018-12-20T07:30:04.878Z,81.93
2018-12-20T07:32:32.360Z,81.63
2018-12-20T07:34:59.806Z,80.73
2018-12-20T07:37:27.476Z,80.51
2018-12-20T07:39:54.864Z,80.31
2018-12-20T07:42:22.277Z,80.19
2018-12-20T07:44:49.692Z,80.09
2018-12-20T07:47:17.153Z,80.29
2018-12-20T07:49:44.565Z,79.85
2018-12-20T07:52:11.983Z,80.00
2018-12-20T07:54:39.385Z,79.82
2018-12-20T07:57:06.801Z,79.42
2018-12-20T07:59:34.261Z,79.29
2018-12-20T08:02:01.669Z,79.12
2018-12-20T08:04:29.175Z,78.75
2018-12-20T08:06:56.492Z,78.41
2018-12-20T08:09:23.918Z,78.42
2018-12-20T08:11:51.352Z,78.23
2018-12-20T08:14:18.837Z,78.16
2018-12-20T08:16:46.377Z,78.41
2018-12-20T08:19:13.687Z,78.07
2018-12-20T08:21:41.118Z,77.59
2018-12-20T08:24:08.526Z,76.92
2018-12-20T08:26:35.940Z,76.75
2018-12-20T08:29:03.350Z,76.98
2018-12-20T08:31:30.810Z,76.76
2018-12-20T08:33:58.257Z,76.79
2018-12-20T08:36:25.694Z,76.98
2018-12-20T08:38:53.091Z,77.07
2018-12-20T08:41:20.607Z,76.91
2018-12-20T08:43:48.018Z,76.25
2018-12-20T08:46:15.428Z,75.65
2018-12-20T08:48:42.819Z,75.53
2018-12-20T08:51:10.245Z,75.07
2018-12-20T08:53:37.683Z,74.97
2018-12-20T08:56:05.074Z,74.84
2018-12-20T08:58:33.134Z,74.06
2018-12-20T09:01:00.633Z,73.63
2018-12-20T09:03:28.212Z,73.49
2018-12-20T09:05:55.642Z,73.69
2018-12-20T09:08:23.035Z,73.49
2018-12-20T09:10:50.445Z,73.53
2018-12-20T09:13:17.910Z,73.77
2018-12-20T09:15:45.364Z,73.86
2018-12-20T09:18:12.776Z,73.33
2018-12-20T09:20:40.199Z,72.90
2018-12-20T09:23:07.612Z,73.97
2018-12-20T09:25:35.015Z,74.32
2018-12-20T09:28:02.415Z,73.84
2018-12-20T09:30:30.708Z,74.31
2018-12-20T09:32:57.659Z,74.15
2018-12-20T09:35:25.070Z,74.35
2018-12-20T09:37:52.503Z,74.32
2018-12-20T09:40:19.897Z,73.88
2018-12-20T09:42:47.407Z,74.28
2018-12-20T09:45:14.806Z,74.34
2018-12-20T09:47:47.714Z,73.89
2018-12-20T09:50:15.107Z,73.62
2018-12-20T09:52:42.054Z,73.77
2018-12-20T09:55:09.449Z,73.73
2018-12-20T09:57:36.851Z,74.09
2018-12-20T10:00:04.291Z,73.79
2018-12-20T10:02:31.711Z,73.73
2018-12-20T10:04:59.156Z,73.82
2018-12-20T10:07:26.592Z,73.60
2018-12-20T10:09:54.007Z,73.00
2018-12-20T10:12:21.664Z,72.63
2018-12-20T10:14:49.085Z,72.18
2018-12-20T10:17:19.926Z,71.99
2018-12-20T10:19:43.549Z,71.25
2018-12-20T10:22:10.486Z,70.80
2018-12-20T10:24:37.892Z,70.91
2018-12-20T10:27:05.308Z,71.40
2018-12-20T10:29:32.728Z,70.89
2018-12-20T10:32:00.155Z,70.34
2018-12-20T10:34:27.565Z,70.27
2018-12-20T10:36:55.054Z,70.10
2018-12-20T10:39:22.439Z,70.19
2018-12-20T10:41:49.840Z,70.27
2018-12-20T10:44:16.834Z,69.90
2018-12-20T10:46:44.295Z,69.07
2018-12-20T10:49:11.777Z,70.01
2018-12-20T10:51:39.183Z,70.54
2018-12-20T10:54:06.208Z,70.34
2018-12-20T10:56:33.152Z,70.03
2018-12-20T10:59:00.600Z,69.91
2018-12-20T11:01:38.685Z,69.68
2018-12-20T11:04:11.747Z,69.61
2018-12-20T11:06:44.252Z,69.45
2018-12-20T11:09:16.900Z,68.84
2018-12-20T11:11:49.623Z,68.91
2018-12-20T11:14:16.627Z,68.06
2018-12-20T11:16:43.595Z,67.25
2018-12-20T11:19:10.542Z,66.24
2018-12-20T11:21:37.574Z,63.62
2018-12-20T11:24:04.619Z,62.21
2018-12-20T11:26:31.560Z,60.41
2018-12-20T11:28:58.544Z,57.37
2018-12-20T11:31:25.511Z,56.60
2018-12-20T11:33:52.951Z,55.58
2018-12-20T11:36:20.361Z,54.49
2018-12-20T11:38:47.758Z,55.92
2018-12-20T11:41:15.380Z,54.28
2018-12-20T11:43:42.879Z,51.13
2018-12-20T11:46:10.416Z,46.01
2018-12-20T11:48:37.824Z,48.14
2018-12-20T11:51:05.224Z,50.75
2018-12-20T11:53:32.638Z,52.11
2018-12-20T11:56:00.063Z,53.75
2018-12-20T11:58:27.502Z,54.54
2018-12-20T12:00:54.947Z,54.25
2018-12-20T12:03:22.599Z,54.68
2018-12-20T12:05:51.269Z,51.50
2018-12-20T12:08:18.682Z,47.05
2018-12-20T12:10:46.135Z,42.33
2018-12-20T12:13:13.538Z,41.06
2018-12-20T12:15:41.156Z,42.01
2018-12-20T12:18:08.631Z,44.52
2018-12-20T12:20:36.050Z,44.10
2018-12-20T12:23:03.574Z,43.40
2018-12-20T12:25:31.073Z,45.68
2018-12-20T12:27:58.517Z,48.68
2018-12-20T12:30:25.926Z,50.74
2018-12-20T12:32:53.347Z,51.96
2018-12-20T12:35:20.895Z,52.25
2018-12-20T12:37:48.285Z,52.98
2018-12-20T12:40:15.697Z,53.28
2018-12-20T12:42:43.175Z,53.73
2018-12-20T12:45:10.628Z,53.31
2018-12-20T12:47:43.748Z,53.56
2018-12-20T12:50:11.153Z,53.86
2018-12-20T12:52:38.705Z,54.48
2018-12-20T12:55:06.137Z,55.13
2018-12-20T12:57:33.570Z,55.64
2018-12-20T13:00:00.992Z,55.98
2018-12-20T13:02:28.439Z,56.29
2018-12-20T13:04:55.894Z,57.05
2018-12-20T13:07:23.335Z,58.01
2018-12-20T13:09:50.756Z,59.01
2018-12-20T13:12:18.152Z,59.13
2018-12-20T13:14:46.689Z,59.67
2018-12-20T13:17:14.275Z,60.49
2018-12-20T13:19:41.682Z,61.86
2018-12-20T13:22:09.150Z,63.39
2018-12-20T13:24:36.542Z,64.42
2018-12-20T13:27:03.951Z,65.21
2018-12-20T13:29:31.374Z,65.79
2018-12-20T13:31:58.800Z,66.67
2018-12-20T13:34:26.186Z,66.90
2018-12-20T13:36:53.647Z,66.84
2018-12-20T13:39:21.401Z,67.00
2018-12-20T13:41:48.786Z,67.18
2018-12-20T13:44:16.187Z,67.36
2018-12-20T13:46:43.735Z,67.56
2018-12-20T13:49:11.207Z,67.51
2018-12-20T13:51:39.388Z,67.34
2018-12-20T13:54:06.869Z,67.42
2018-12-20T13:56:34.286Z,68.37
2018-12-20T13:59:03.468Z,68.22
2018-12-20T14:01:28.768Z,68.46
2018-12-20T14:03:57.256Z,68.98
2018-12-20T14:06:23.609Z,69.30
2018-12-20T14:08:51.036Z,69.20
2018-12-20T14:11:18.450Z,69.90
2018-12-20T14:13:45.871Z,70.30
2018-12-20T14:16:13.757Z,70.23
2018-12-20T14:18:41.271Z,70.00
2018-12-20T14:21:08.664Z,70.39
2018-12-20T14:23:36.069Z,70.45
2018-12-20T14:26:03.466Z,70.87
2018-12-20T14:28:30.868Z,70.94
2018-12-20T14:30:58.327Z,71.46
2018-12-20T14:33:25.736Z,71.25
2018-12-20T14:35:53.301Z,70.85
2018-12-20T14:38:20.718Z,71.30
2018-12-20T14:40:48.184Z,71.29
2018-12-20T14:43:15.592Z,71.09
2018-12-20T14:45:43.035Z,71.22
2018-12-20T14:48:10.446Z,71.47
2018-12-20T14:50:38.356Z,71.37
2018-12-20T14:53:05.830Z,71.70
2018-12-20T14:55:33.267Z,72.04
2018-12-20T14:58:00.742Z,72.17
2018-12-20T15:00:28.172Z,72.53
2018-12-20T15:02:55.598Z,72.38
2018-12-20T15:05:22.752Z,72.50
2018-12-20T15:07:49.713Z,72.46
2018-12-20T15:10:16.751Z,72.83
2018-12-20T15:12:43.745Z,73.08
2018-12-20T15:15:10.765Z,73.10
2018-12-20T15:17:37.702Z,73.05
2018-12-20T15:20:04.646Z,73.36
2018-12-20T15:22:31.590Z,73.03
2018-12-20T15:24:58.526Z,73.07
2018-12-20T15:27:25.565Z,72.93
2018-12-20T15:29:52.551Z,73.12
2018-12-20T15:32:19.512Z,72.78
2018-12-20T15:34:46.458Z,72.54
2018-12-20T15:37:13.406Z,72.36
2018-12-20T15:39:40.363Z,72.39
2018-12-20T15:42:07.330Z,72.36
2018-12-20T15:44:34.340Z,72.14
2018-12-20T15:47:01.332Z,71.87
2018-12-20T15:49:28.280Z,71.60
2018-12-20T15:51:55.239Z,71.38
2018-12-20T15:54:22.278Z,70.89
2018-12-20T15:56:49.242Z,70.76
2018-12-20T15:59:16.179Z,70.35
2018-12-20T16:01:43.266Z,69.99
2018-12-20T16:04:10.403Z,69.33
2018-12-20T16:06:37.614Z,68.73
2018-12-20T16:09:05.062Z,67.97
2018-12-20T16:11:32.484Z,67.69
2018-12-20T16:14:00.775Z,67.38
2018-12-20T16:16:28.179Z,67.71
2018-12-20T16:18:55.575Z,68.12
2018-12-20T16:21:23.122Z,68.90
2018-12-20T16:23:50.620Z,68.88
2018-12-20T16:26:18.108Z,68.88
2018-12-20T16:28:45.434Z,69.14
2018-12-20T16:31:12.843Z,69.55
2018-12-20T16:33:40.248Z,70.06
2018-12-20T16:36:07.235Z,70.38
2018-12-20T16:38:34.253Z,70.84
2018-12-20T16:41:01.687Z,71.27
2018-12-20T16:43:29.196Z,71.49
2018-12-20T16:45:56.618Z,71.83
2018-12-20T16:48:24.083Z,71.86
2018-12-20T16:50:51.506Z,71.95
2018-12-20T16:53:18.886Z,71.66
2018-12-20T16:55:46.287Z,71.46
2018-12-20T16:58:13.691Z,71.53
2018-12-20T17:00:41.129Z,71.76
2018-12-20T17:03:08.713Z,71.78
2018-12-20T17:05:36.416Z,71.99
2018-12-20T17:08:03.920Z,72.11
2018-12-20T17:10:31.377Z,72.05
2018-12-20T17:12:59.210Z,71.99
2018-12-20T17:15:26.684Z,71.96
2018-12-20T17:17:54.213Z,71.66
2018-12-20T17:20:21.621Z,71.91
2018-12-20T17:22:49.209Z,71.57
2018-12-20T17:25:16.692Z,71.46
2018-12-20T17:27:44.093Z,70.88
2018-12-20T17:30:11.517Z,70.33
2018-12-20T17:32:38.945Z,69.41
2018-12-20T17:35:06.381Z,68.75
2018-12-20T17:37:33.882Z,68.67
2018-12-20T17:40:01.318Z,68.78
2018-12-20T17:42:28.720Z,68.72
2018-12-20T17:44:56.142Z,69.64
2018-12-20T17:47:23.940Z,69.82
2018-12-20T17:49:51.430Z,69.95
2018-12-20T17:52:18.876Z,70.17
2018-12-20T17:54:46.300Z,70.37
2018-12-20T17:57:13.734Z,70.62
2018-12-20T17:59:41.130Z,70.32
2018-12-20T18:02:08.572Z,70.38
2018-12-20T18:04:36.006Z,70.47
2018-12-20T18:07:03.407Z,70.37
2018-12-20T18:09:30.811Z,70.59
2018-12-20T18:11:58.221Z,71.17
2018-12-20T18:14:25.836Z,71.21
2018-12-20T18:16:53.532Z,71.32
2018-12-20T18:19:21.016Z,71.60
2018-12-20T18:21:48.420Z,71.98
2018-12-20T18:24:15.841Z,72.33
2018-12-20T18:26:43.308Z,72.55
2018-12-20T18:29:10.805Z,72.84
2018-12-20T18:31:38.231Z,73.03
2018-12-20T18:34:05.879Z,72.68
2018-12-20T18:36:33.299Z,72.48
2018-12-20T18:39:00.706Z,72.27
2018-12-20T18:41:28.231Z,72.12
2018-12-20T18:43:55.635Z,72.19
2018-12-20T18:46:23.032Z,72.39
2018-12-20T18:48:50.474Z,72.65
2018-12-20T18:51:17.902Z,73.21
2018-12-20T18:53:45.327Z,73.67
2018-12-20T18:56:13.447Z,73.00
2018-12-20T18:58:40.998Z,72.82
2018-12-20T19:01:08.439Z,72.21
2018-12-20T19:03:35.854Z,72.36
2018-12-20T19:06:03.275Z,72.67
2018-12-20T19:08:30.958Z,72.84
2018-12-20T19:10:58.363Z,73.05
2018-12-20T19:13:25.778Z,73.10
2018-12-20T19:15:53.482Z,73.33
2018-12-20T19:18:20.906Z,73.45
2018-12-20T19:20:48.317Z,73.45
2018-12-20T19:23:16.467Z,73.52
2018-12-20T19:25:43.905Z,73.88
2018-12-20T19:28:11.302Z,74.05
2018-12-20T19:30:38.715Z,74.05
2018-12-20T19:33:06.136Z,74.19
2018-12-20T19:35:33.544Z,74.32
2018-12-20T19:38:00.967Z,74.75
2018-12-20T19:40:28.461Z,74.65
2018-12-20T19:42:55.898Z,74.89
2018-12-20T19:45:23.310Z,74.89
2018-12-20T19:47:50.707Z,74.92
2018-12-20T19:50:18.162Z,75.01
2018-12-20T19:52:45.627Z,75.03
2018-12-20T19:55:13.024Z,74.72
2018-12-20T19:57:40.466Z,75.17
2018-12-20T20:00:07.940Z,75.42
2018-12-20T20:02:35.416Z,75.45
2018-12-20T20:05:02.842Z,75.33
2018-12-20T20:07:30.241Z,74.81
2018-12-20T20:09:57.655Z,74.72
2018-12-20T20:12:25.068Z,74.69
2018-12-20T20:14:52.458Z,74.73
2018-12-20T20:17:19.862Z,75.00
2018-12-20T20:19:47.254Z,74.75
2018-12-20T20:22:14.658Z,74.75
2018-12-20T20:24:42.052Z,74.73
2018-12-20T20:27:09.474Z,74.54
2018-12-20T20:29:36.965Z,74.58
2018-12-20T20:32:04.387Z,74.51
2018-12-20T20:34:31.775Z,74.19
2018-12-20T20:36:59.188Z,74.13
2018-12-20T20:39:26.580Z,74.06
2018-12-20T20:41:54.069Z,74.40
2018-12-20T20:44:21.485Z,74.79
2018-12-20T20:46:48.923Z,74.51
2018-12-20T20:49:16.353Z,74.23
2018-12-20T20:51:43.277Z,74.27
2018-12-20T20:54:11.322Z,74.37
2018-12-20T20:56:38.740Z,74.60
2018-12-20T20:59:06.210Z,74.58
2018-12-20T21:01:33.610Z,74.12
2018-12-20T21:04:03.709Z,74.08
2018-12-20T21:06:28.471Z,74.35
2018-12-20T21:08:55.876Z,74.56
2018-12-20T21:11:23.413Z,74.31
2018-12-20T21:13:50.748Z,74.25
2018-12-20T21:16:17.695Z,74.38
2018-12-20T21:18:45.135Z,74.03
2018-12-20T21:21:13.326Z,73.83
2018-12-20T21:23:40.737Z,74.03
2018-12-20T21:26:08.130Z,74.22
2018-12-20T21:28:35.306Z,73.61
2018-12-20T21:31:03.067Z,73.46
2018-12-20T21:33:30.019Z,73.14
2018-12-20T21:35:57.029Z,73.75
2018-12-20T21:38:24.504Z,73.46
2018-12-20T21:40:51.509Z,73.58
2018-12-20T21:43:18.942Z,74.11
2018-12-20T21:45:45.911Z,74.38
2018-12-20T21:48:13.331Z,74.36
2018-12-20T21:50:40.761Z,74.34
2018-12-20T21:53:08.254Z,74.38
2018-12-20T21:55:35.683Z,74.64
2018-12-20T21:58:03.066Z,74.81
2018-12-20T22:00:30.607Z,74.74
2018-12-20T22:02:58.012Z,74.75
2018-12-20T22:05:25.465Z,74.94
2018-12-20T22:07:52.855Z,75.01
2018-12-20T22:10:20.298Z,75.14
2018-12-20T22:12:47.736Z,75.17
2018-12-20T22:15:15.146Z,75.17
2018-12-20T22:17:42.559Z,75.14
2018-12-20T22:20:10.044Z,74.92
2018-12-20T22:22:37.492Z,74.83
2018-12-20T22:25:04.925Z,74.74
2018-12-20T22:27:32.440Z,74.69
2018-12-20T22:29:59.759Z,74.34
2018-12-20T22:32:27.187Z,74.30
2018-12-20T22:34:54.616Z,73.80
2018-12-20T22:37:22.003Z,73.60
2018-12-20T22:39:49.480Z,73.71
2018-12-20T22:42:16.917Z,73.62
2018-12-20T22:44:44.400Z,73.36
2018-12-20T22:47:11.794Z,73.40
2018-12-20T22:49:39.263Z,73.34
2018-12-20T22:52:06.657Z,72.87
2018-12-20T22:54:34.087Z,73.03
2018-12-20T22:57:01.514Z,72.69
2018-12-20T22:59:28.906Z,72.61
2018-12-20T23:01:56.307Z,72.70
2018-12-20T23:04:23.713Z,72.52
2018-12-20T23:06:51.146Z,73.10
2018-12-20T23:09:18.586Z,72.58
2018-12-20T23:11:45.982Z,72.41
2018-12-20T23:14:13.385Z,72.59
2018-12-20T23:16:40.774Z,72.56
2018-12-20T23:19:08.187Z,72.56
2018-12-20T23:21:35.584Z,72.85
2018-12-20T23:24:03.078Z,72.82
2018-12-20T23:26:31.399Z,72.88
2018-12-20T23:28:58.795Z,72.90
2018-12-20T23:31:26.200Z,72.80
2018-12-20T23:33:53.662Z,72.75
2018-12-20T23:36:21.055Z,72.74
2018-12-20T23:38:48.527Z,72.63
2018-12-20T23:41:15.958Z,72.58
2018-12-20T23:43:43.361Z,72.62
2018-12-20T23:46:10.762Z,72.19
2018-12-20T23:48:38.167Z,71.73
2018-12-20T23:51:13.237Z,71.72
2018-12-20T23:53:33.025Z,71.98
2018-12-20T23:56:00.409Z,72.26
2018-12-20T23:58:27.856Z,72.57
